createdAt,value
2018-01-01T00:01:03.276Z,0
2018-01-01T00:01:52.769Z,0
2018-01-01T00:02:53.391Z,0
2018-01-01T00:03:52.986Z,0
2018-01-01T00:04:52.741Z,0
2018-01-01T00:05:53.050Z,0
2018-01-01T00:06:53.755Z,0
2018-01-01T00:07:53.724Z,0
2018-01-01T00:08:53.717Z,0
2018-01-01T00:09:54.021Z,0
2018-01-01T00:10:54.084Z,0
2018-01-01T00:11:54.348Z,0
2018-01-01T00:12:54.953Z,0
2018-01-01T00:13:54.659Z,0
2018-01-01T00:14:54.974Z,0
2018-01-01T00:15:54.861Z,0
2018-01-01T00:16:54.712Z,0
2018-01-01T00:17:55.014Z,0
2018-01-01T00:18:54.978Z,0
2018-01-01T00:19:54.700Z,0
2018-01-01T00:20:55.004Z,0
2018-01-01T00:21:56.619Z,0
2018-01-01T00:22:55.474Z,0
2018-01-01T00:23:54.851Z,0
2018-01-01T00:24:55.306Z,0
2018-01-01T00:25:55.338Z,0
2018-01-01T00:26:55.799Z,0
2018-01-01T00:27:55.995Z,0
2018-01-01T00:28:55.965Z,0
2018-01-01T00:29:56.727Z,0
2018-01-01T00:30:56.488Z,0
2018-01-01T00:31:56.253Z,0
2018-01-01T00:32:56.567Z,0
2018-01-01T00:33:57.356Z,0
2018-01-01T00:34:56.657Z,0
2018-01-01T00:35:57.638Z,0
2018-01-01T00:36:56.773Z,0
2018-01-01T00:37:57.513Z,0
2018-01-01T00:38:57.024Z,0
2018-01-01T00:39:57.726Z,0
2018-01-01T00:40:57.182Z,0
2018-01-01T00:41:59.117Z,0
2018-01-01T00:42:57.466Z,0
2018-01-01T00:43:57.763Z,0
2018-01-01T00:44:58.896Z,0
2018-01-01T00:45:57.791Z,0
2018-01-01T00:46:57.805Z,0
2018-01-01T00:47:57.841Z,0
2018-01-01T00:48:58.281Z,0
2018-01-01T00:49:58.062Z,0
2018-01-01T00:50:58.159Z,0
2018-01-01T00:51:58.461Z,0
2018-01-01T00:52:59.202Z,0
2018-01-01T00:53:58.622Z,0
2018-01-01T00:54:58.660Z,0
2018-01-01T00:55:59.223Z,0
2018-01-01T00:56:59.224Z,0
2018-01-01T00:57:59.293Z,0
2018-01-01T00:58:58.982Z,0
2018-01-01T00:59:59.018Z,0
2018-01-01T01:01:59.112Z,0
2018-01-01T01:02:59.048Z,0
2018-01-01T01:03:59.298Z,0
2018-01-01T01:04:59.386Z,0
2018-01-01T01:05:59.130Z,0
2018-01-01T01:07:00.948Z,0
2018-01-01T01:07:59.804Z,0
2018-01-01T01:09:00.067Z,0
2018-01-01T01:09:59.468Z,0
2018-01-01T01:11:00.864Z,0
2018-01-01T01:12:00.102Z,0
2018-01-01T01:14:00.399Z,0
2018-01-01T01:15:00.535Z,0
2018-01-01T01:16:00.625Z,0
2018-01-01T01:17:00.402Z,0
2018-01-01T01:18:00.604Z,0
2018-01-01T01:19:01.180Z,0
2018-01-01T01:20:01.208Z,0
2018-01-01T01:21:01.965Z,0
2018-01-01T01:22:00.708Z,0
2018-01-01T01:23:00.691Z,0
2018-01-01T01:24:00.912Z,0
2018-01-01T01:25:00.926Z,0
2018-01-01T01:26:00.946Z,0
2018-01-01T01:27:01.224Z,0
2018-01-01T01:28:00.233Z,0
2018-01-01T01:29:00.322Z,0
2018-01-01T01:30:01.054Z,0
2018-01-01T01:31:00.763Z,0
2018-01-01T01:32:01.263Z,0
2018-01-01T01:33:01.295Z,0
2018-01-01T01:34:01.519Z,0
2018-01-01T01:35:01.430Z,0
2018-01-01T01:36:01.492Z,0
2018-01-01T01:37:00.956Z,0
2018-01-01T01:38:01.464Z,0
2018-01-01T01:39:01.331Z,0
2018-01-01T01:40:01.334Z,0
2018-01-01T01:41:01.602Z,0
2018-01-01T01:42:01.836Z,0
2018-01-01T01:43:01.272Z,0
2018-01-01T01:44:01.626Z,0
2018-01-01T01:45:02.425Z,0
2018-01-01T01:46:02.147Z,0
2018-01-01T01:47:02.721Z,0
2018-01-01T01:48:03.190Z,0
2018-01-01T01:49:03.328Z,0
2018-01-01T01:50:02.722Z,0
2018-01-01T01:51:02.771Z,0
2018-01-01T01:52:03.765Z,0
2018-01-01T01:53:03.189Z,0
2018-01-01T01:54:03.128Z,0
2018-01-01T01:55:02.891Z,0
2018-01-01T01:56:03.426Z,0
2018-01-01T01:57:03.763Z,0
2018-01-01T01:58:03.859Z,0
2018-01-01T01:59:03.602Z,0
2018-01-01T02:00:19.222Z,0
2018-01-01T02:01:04.542Z,0
2018-01-01T02:02:04.591Z,0
2018-01-01T02:03:04.735Z,0
2018-01-01T02:04:04.633Z,0
2018-01-01T02:05:05.122Z,0
2018-01-01T02:06:05.054Z,0
2018-01-01T02:07:05.260Z,0
2018-01-01T02:08:05.312Z,0
2018-01-01T02:09:06.833Z,0
2018-01-01T02:10:06.557Z,0
2018-01-01T02:11:05.936Z,0
2018-01-01T02:12:05.894Z,0
2018-01-01T02:13:06.243Z,0
2018-01-01T02:14:06.190Z,0
2018-01-01T02:15:06.087Z,0
2018-01-01T02:16:06.452Z,0
2018-01-01T02:17:06.817Z,0
2018-01-01T02:18:06.529Z,0
2018-01-01T02:19:06.672Z,0
2018-01-01T02:20:07.144Z,0
2018-01-01T02:21:07.125Z,0
2018-01-01T02:22:07.598Z,0
2018-01-01T02:23:07.385Z,0
2018-01-01T02:24:07.598Z,0
2018-01-01T02:25:07.466Z,0
2018-01-01T02:26:07.115Z,0
2018-01-01T02:27:08.228Z,0
2018-01-01T02:28:07.540Z,0
2018-01-01T02:29:07.628Z,0
2018-01-01T02:30:08.126Z,0
2018-01-01T02:31:08.003Z,0
2018-01-01T02:32:08.945Z,0
2018-01-01T02:33:08.482Z,0
2018-01-01T02:34:08.661Z,0
2018-01-01T02:35:08.932Z,0
2018-01-01T02:36:09.502Z,0
2018-01-01T02:37:09.539Z,0
2018-01-01T02:38:09.681Z,0
2018-01-01T02:39:09.832Z,0
2018-01-01T02:40:09.823Z,0
2018-01-01T02:41:10.611Z,0
2018-01-01T02:42:25.304Z,0
2018-01-01T02:43:10.674Z,0
2018-01-01T02:44:28.359Z,0
2018-01-01T02:45:10.658Z,0
2018-01-01T02:46:10.474Z,0
2018-01-01T02:47:10.267Z,0
2018-01-01T02:48:11.022Z,0
2018-01-01T02:49:10.248Z,0
2018-01-01T02:50:10.658Z,0
2018-01-01T02:51:10.827Z,0
2018-01-01T02:52:10.840Z,0
2018-01-01T02:53:12.322Z,0
2018-01-01T02:54:11.475Z,0
2018-01-01T02:55:11.574Z,0
2018-01-01T02:56:11.255Z,0
2018-01-01T02:57:11.138Z,0
2018-01-01T02:58:11.465Z,0
2018-01-01T02:59:11.729Z,0
2018-01-01T03:00:26.153Z,0
2018-01-01T03:01:26.442Z,0
2018-01-01T03:02:43.833Z,0
2018-01-01T03:03:26.513Z,0
2018-01-01T03:05:26.924Z,0
2018-01-01T03:06:32.384Z,0
2018-01-01T03:08:33.068Z,0
2018-01-01T03:09:46.722Z,0
2018-01-01T03:10:41.547Z,0
2018-01-01T03:11:41.796Z,0
2018-01-01T03:12:41.591Z,0
2018-01-01T03:13:41.886Z,0
2018-01-01T03:14:41.628Z,0
2018-01-01T03:15:41.987Z,0
2018-01-01T03:16:42.231Z,0
2018-01-01T03:17:47.155Z,0
2018-01-01T03:18:47.134Z,0
2018-01-01T03:19:47.122Z,0
2018-01-01T03:20:47.676Z,0
2018-01-01T03:21:47.958Z,0
2018-01-01T03:22:48.553Z,0
2018-01-01T03:23:48.080Z,0
2018-01-01T03:24:50.391Z,0
2018-01-01T03:25:48.209Z,0
2018-01-01T03:26:47.870Z,0
2018-01-01T03:27:56.895Z,0
2018-01-01T03:28:47.933Z,0
2018-01-01T03:29:58.109Z,0
2018-01-01T03:30:58.045Z,0
2018-01-01T03:32:14.527Z,0
2018-01-01T03:32:58.647Z,0
2018-01-01T03:33:57.880Z,0
2018-01-01T03:35:00.507Z,0
2018-01-01T03:35:58.390Z,0
2018-01-01T03:37:14.171Z,0
2018-01-01T03:38:12.974Z,0
2018-01-01T03:39:13.609Z,0
2018-01-01T03:40:16.184Z,0
2018-01-01T03:41:13.447Z,0
2018-01-01T03:42:13.089Z,0
2018-01-01T03:43:14.228Z,0
2018-01-01T03:44:12.977Z,0
2018-01-01T03:45:14.119Z,0
2018-01-01T03:46:14.063Z,0
2018-01-01T03:47:14.123Z,0
2018-01-01T03:48:13.787Z,0
2018-01-01T03:49:28.336Z,0
2018-01-01T03:50:38.471Z,0
2018-01-01T03:51:39.775Z,0
2018-01-01T03:52:38.466Z,0
2018-01-01T03:53:39.267Z,0
2018-01-01T03:54:39.300Z,0
2018-01-01T03:55:39.228Z,0
2018-01-01T03:56:39.226Z,0
2018-01-01T03:57:39.339Z,0
2018-01-01T03:58:39.428Z,0
2018-01-01T03:59:39.056Z,0
2018-01-01T04:00:39.005Z,0
2018-01-01T04:01:39.940Z,0
2018-01-01T04:02:39.841Z,0
2018-01-01T04:03:39.380Z,0
2018-01-01T04:04:39.585Z,0
2018-01-01T04:05:39.551Z,0
2018-01-01T04:06:39.897Z,0
2018-01-01T04:07:39.128Z,0
2018-01-01T04:08:39.662Z,0
2018-01-01T04:09:54.745Z,0
2018-01-01T04:10:39.075Z,0
2018-01-01T04:11:39.790Z,0
2018-01-01T04:12:39.775Z,0
2018-01-01T04:13:39.797Z,0
2018-01-01T04:14:39.584Z,0
2018-01-01T04:15:39.613Z,0
2018-01-01T04:16:40.085Z,0
2018-01-01T04:17:40.301Z,0
2018-01-01T04:18:40.115Z,0
2018-01-01T04:19:40.319Z,0
2018-01-01T04:20:40.821Z,0
2018-01-01T04:21:40.512Z,0
2018-01-01T04:22:40.684Z,0
2018-01-01T04:23:40.877Z,0
2018-01-01T04:24:42.101Z,0
2018-01-01T04:25:41.628Z,0
2018-01-01T04:26:41.388Z,0
2018-01-01T04:27:41.831Z,0
2018-01-01T04:28:42.271Z,0
2018-01-01T04:29:42.462Z,0
2018-01-01T04:30:42.204Z,0
2018-01-01T04:31:42.780Z,0
2018-01-01T04:32:43.248Z,0
2018-01-01T04:33:42.616Z,0
2018-01-01T04:34:42.880Z,0
2018-01-01T04:35:42.637Z,0
2018-01-01T04:36:42.815Z,0
2018-01-01T04:37:42.986Z,0
2018-01-01T04:38:43.217Z,0
2018-01-01T04:39:43.812Z,0
2018-01-01T04:40:43.850Z,0
2018-01-01T04:41:43.568Z,0
2018-01-01T04:42:44.238Z,0
2018-01-01T04:43:44.548Z,0
2018-01-01T04:44:44.474Z,0
2018-01-01T04:45:44.210Z,0
2018-01-01T04:46:44.430Z,0
2018-01-01T04:47:44.289Z,0
2018-01-01T04:48:44.326Z,0
2018-01-01T04:49:44.793Z,0
2018-01-01T04:50:44.956Z,0
2018-01-01T04:51:45.514Z,0
2018-01-01T04:52:45.808Z,0
2018-01-01T04:53:45.550Z,0
2018-01-01T04:54:45.630Z,0
2018-01-01T04:55:45.651Z,0
2018-01-01T04:56:45.609Z,0
2018-01-01T04:57:46.341Z,0
2018-01-01T04:58:46.438Z,0
2018-01-01T04:59:46.385Z,0
2018-01-01T05:00:46.394Z,0
2018-01-01T05:01:46.811Z,0
2018-01-01T05:02:46.752Z,0
2018-01-01T05:03:46.508Z,0
2018-01-01T05:04:47.146Z,0
2018-01-01T05:05:47.346Z,0
2018-01-01T05:06:47.218Z,0
2018-01-01T05:07:47.372Z,0
2018-01-01T05:08:47.780Z,0
2018-01-01T05:09:47.893Z,0
2018-01-01T05:10:48.434Z,0
2018-01-01T05:11:48.575Z,0
2018-01-01T05:12:48.792Z,0
2018-01-01T05:13:49.201Z,0
2018-01-01T05:14:49.575Z,0
2018-01-01T05:15:49.380Z,0
2018-01-01T05:16:49.497Z,0
2018-01-01T05:17:48.976Z,0
2018-01-01T05:18:49.572Z,0
2018-01-01T05:19:49.765Z,0
2018-01-01T05:20:50.315Z,0
2018-01-01T05:21:49.798Z,0
2018-01-01T05:22:50.430Z,0
2018-01-01T05:23:50.228Z,0
2018-01-01T05:24:50.501Z,0
2018-01-01T05:25:50.292Z,0
2018-01-01T05:26:50.755Z,0
2018-01-01T05:27:51.412Z,0
2018-01-01T05:28:51.787Z,0
2018-01-01T05:29:52.181Z,0
2018-01-01T05:30:52.331Z,0
2018-01-01T05:31:52.128Z,0
2018-01-01T05:32:54.477Z,0
2018-01-01T05:33:53.575Z,0
2018-01-01T05:34:53.396Z,0
2018-01-01T05:35:53.287Z,0
2018-01-01T05:36:53.105Z,0
2018-01-01T05:37:53.970Z,0
2018-01-01T05:38:53.549Z,0
2018-01-01T05:39:53.411Z,0
2018-01-01T05:40:53.689Z,0
2018-01-01T05:41:53.615Z,0
2018-01-01T05:42:54.076Z,0
2018-01-01T05:43:53.694Z,0
2018-01-01T05:44:53.718Z,0
2018-01-01T05:45:54.509Z,0
2018-01-01T05:46:54.403Z,0
2018-01-01T05:47:54.977Z,0
2018-01-01T05:48:55.370Z,0
2018-01-01T05:49:55.793Z,0
2018-01-01T05:50:55.946Z,0
2018-01-01T05:51:56.000Z,0
2018-01-01T05:52:55.970Z,0
2018-01-01T05:53:56.061Z,0
2018-01-01T05:54:58.308Z,0
2018-01-01T05:55:57.265Z,0
2018-01-01T05:56:57.672Z,0
2018-01-01T05:57:57.999Z,0
2018-01-01T05:58:56.961Z,0
2018-01-01T05:59:58.005Z,0
2018-01-01T06:00:58.212Z,0
2018-01-01T06:01:58.959Z,0
2018-01-01T06:02:58.717Z,0
2018-01-01T06:03:59.180Z,0
2018-01-01T06:04:59.580Z,0
2018-01-01T06:05:58.404Z,0
2018-01-01T06:06:58.384Z,0
2018-01-01T06:07:58.209Z,0
2018-01-01T06:08:57.457Z,0
2018-01-01T06:09:57.219Z,0
2018-01-01T06:10:58.068Z,0
2018-01-01T06:11:57.711Z,0
2018-01-01T06:12:58.618Z,0
2018-01-01T06:13:58.599Z,0
2018-01-01T06:14:58.156Z,0
2018-01-01T06:15:58.608Z,0
2018-01-01T06:16:58.702Z,0
2018-01-01T06:17:58.581Z,0
2018-01-01T06:18:59.240Z,0
2018-01-01T06:20:00.042Z,0
2018-01-01T06:20:59.633Z,0
2018-01-01T06:21:59.266Z,0
2018-01-01T06:22:58.988Z,0
2018-01-01T06:24:00.046Z,0
2018-01-01T06:24:59.922Z,0
2018-01-01T06:25:59.586Z,0
2018-01-01T06:27:01.610Z,0
2018-01-01T06:28:00.747Z,0
2018-01-01T06:29:00.328Z,0
2018-01-01T06:30:00.768Z,0
2018-01-01T06:31:01.340Z,0
2018-01-01T06:32:01.090Z,0
2018-01-01T06:33:00.889Z,0
2018-01-01T06:34:01.107Z,0
2018-01-01T06:35:01.771Z,0
2018-01-01T06:36:01.977Z,0
2018-01-01T06:37:02.064Z,0
2018-01-01T06:38:02.025Z,0
2018-01-01T06:39:01.790Z,0
2018-01-01T06:40:01.786Z,0
2018-01-01T06:41:02.091Z,0
2018-01-01T06:42:02.241Z,0
2018-01-01T06:43:02.189Z,0
2018-01-01T06:44:01.770Z,0
2018-01-01T06:45:01.798Z,4
2018-01-01T06:46:02.092Z,0
2018-01-01T06:47:02.602Z,4
2018-01-01T06:48:02.303Z,4
2018-01-01T06:49:03.064Z,4
2018-01-01T06:50:02.495Z,4
2018-01-01T06:51:02.817Z,4
2018-01-01T06:52:02.926Z,4
2018-01-01T06:53:03.203Z,4
2018-01-01T06:54:03.427Z,4
2018-01-01T06:55:02.662Z,4
2018-01-01T06:56:03.131Z,4
2018-01-01T06:57:03.152Z,8
2018-01-01T06:58:03.196Z,8
2018-01-01T06:59:04.481Z,8
2018-01-01T07:00:18.233Z,8
2018-01-01T07:01:03.396Z,12
2018-01-01T07:02:03.717Z,12
2018-01-01T07:03:03.780Z,16
2018-01-01T07:04:04.093Z,20
2018-01-01T07:05:03.829Z,20
2018-01-01T07:06:04.025Z,28
2018-01-01T07:07:04.589Z,36
2018-01-01T07:08:04.539Z,48
2018-01-01T07:09:04.343Z,52
2018-01-01T07:10:04.560Z,60
2018-01-01T07:11:05.022Z,68
2018-01-01T07:12:04.806Z,76
2018-01-01T07:13:04.860Z,84
2018-01-01T07:14:05.062Z,92
2018-01-01T07:15:05.576Z,96
2018-01-01T07:16:05.259Z,104
2018-01-01T07:17:05.502Z,112
2018-01-01T07:18:04.918Z,120
2018-01-01T07:19:05.803Z,132
2018-01-01T07:20:05.825Z,140
2018-01-01T07:21:05.823Z,148
2018-01-01T07:22:06.056Z,152
2018-01-01T07:23:06.037Z,164
2018-01-01T07:24:05.694Z,176
2018-01-01T07:25:06.252Z,192
2018-01-01T07:26:06.303Z,224
2018-01-01T07:27:06.590Z,256
2018-01-01T07:28:05.660Z,300
2018-01-01T07:29:06.230Z,308
2018-01-01T07:30:06.475Z,316
2018-01-01T07:31:06.752Z,332
2018-01-01T07:32:07.208Z,364
2018-01-01T07:33:07.641Z,392
2018-01-01T07:34:06.602Z,428
2018-01-01T07:35:06.901Z,444
2018-01-01T07:36:06.330Z,428
2018-01-01T07:37:06.414Z,428
2018-01-01T07:38:06.646Z,440
2018-01-01T07:39:06.682Z,492
2018-01-01T07:40:07.216Z,536
2018-01-01T07:41:06.812Z,588
2018-01-01T07:42:08.582Z,612
2018-01-01T07:43:08.094Z,628
2018-01-01T07:44:07.142Z,688
2018-01-01T07:45:07.503Z,816
2018-01-01T07:46:07.429Z,840
2018-01-01T07:47:07.430Z,852
2018-01-01T07:48:08.600Z,896
2018-01-01T07:49:07.794Z,944
2018-01-01T07:50:08.340Z,908
2018-01-01T07:51:08.748Z,908
2018-01-01T07:52:10.199Z,940
2018-01-01T07:53:08.972Z,948
2018-01-01T07:54:08.528Z,956
2018-01-01T07:55:09.563Z,1116
2018-01-01T07:56:08.478Z,1256
2018-01-01T07:57:08.706Z,1404
2018-01-01T07:58:09.074Z,1500
2018-01-01T07:59:09.451Z,1488
2018-01-01T08:00:23.976Z,1432
2018-01-01T08:01:09.704Z,1436
2018-01-01T08:02:09.807Z,1464
2018-01-01T08:03:09.559Z,1456
2018-01-01T08:04:09.368Z,1436
2018-01-01T08:05:12.128Z,1384
2018-01-01T08:06:09.823Z,1336
2018-01-01T08:07:10.053Z,1252
2018-01-01T08:08:09.962Z,1228
2018-01-01T08:09:09.779Z,1204
2018-01-01T08:10:10.012Z,1196
2018-01-01T08:11:10.277Z,1136
2018-01-01T08:12:10.305Z,1120
2018-01-01T08:13:10.324Z,1116
2018-01-01T08:14:10.382Z,1136
2018-01-01T08:15:10.647Z,1144
2018-01-01T08:16:11.652Z,1168
2018-01-01T08:17:11.474Z,1084
2018-01-01T08:18:11.073Z,1036
2018-01-01T08:19:11.413Z,1044
2018-01-01T08:20:12.735Z,1156
2018-01-01T08:21:11.359Z,1168
2018-01-01T08:22:11.164Z,1224
2018-01-01T08:23:11.471Z,1344
2018-01-01T08:24:12.282Z,1352
2018-01-01T08:25:11.400Z,1540
2018-01-01T08:26:11.910Z,1584
2018-01-01T08:27:11.430Z,1584
2018-01-01T08:28:11.905Z,1776
2018-01-01T08:29:12.666Z,1868
2018-01-01T08:30:11.918Z,1836
2018-01-01T08:31:11.911Z,1628
2018-01-01T08:32:11.900Z,1632
2018-01-01T08:33:13.231Z,1804
2018-01-01T08:34:13.425Z,1764
2018-01-01T08:35:13.971Z,1804
2018-01-01T08:36:14.121Z,2352
2018-01-01T08:37:14.041Z,2788
2018-01-01T08:38:13.388Z,2496
2018-01-01T08:39:12.930Z,1880
2018-01-01T08:40:12.344Z,1936
2018-01-01T08:41:12.569Z,2068
2018-01-01T08:42:12.376Z,2152
2018-01-01T08:43:12.484Z,2236
2018-01-01T08:44:11.887Z,2292
2018-01-01T08:45:12.272Z,2328
2018-01-01T08:46:14.102Z,2200
2018-01-01T08:47:13.694Z,2304
2018-01-01T08:48:13.447Z,2188
2018-01-01T08:49:13.453Z,2244
2018-01-01T08:50:13.710Z,2184
2018-01-01T08:51:13.444Z,2240
2018-01-01T08:52:12.737Z,2400
2018-01-01T08:53:13.632Z,2500
2018-01-01T08:54:14.712Z,2556
2018-01-01T08:55:13.769Z,2496
2018-01-01T08:56:12.550Z,2472
2018-01-01T08:57:12.811Z,2464
2018-01-01T08:58:12.614Z,2632
2018-01-01T08:59:12.946Z,2624
2018-01-01T09:00:26.946Z,2728
2018-01-01T09:01:12.630Z,2740
2018-01-01T09:02:13.285Z,2572
2018-01-01T09:03:13.208Z,2808
2018-01-01T09:04:13.095Z,3200
2018-01-01T09:05:13.095Z,3188
2018-01-01T09:06:13.814Z,3044
2018-01-01T09:07:14.289Z,3356
2018-01-01T09:08:14.591Z,3556
2018-01-01T09:09:14.249Z,2780
2018-01-01T09:10:14.482Z,2652
2018-01-01T09:11:14.561Z,2892
2018-01-01T09:12:16.055Z,3180
2018-01-01T09:13:14.568Z,3640
2018-01-01T09:14:17.121Z,3928
2018-01-01T09:15:14.716Z,7328
2018-01-01T09:16:17.450Z,8280
2018-01-01T09:17:15.697Z,11748
2018-01-01T09:18:15.431Z,12128
2018-01-01T09:19:15.341Z,4136
2018-01-01T09:20:15.895Z,3024
2018-01-01T09:21:16.407Z,3932
2018-01-01T09:22:16.341Z,10420
2018-01-01T09:23:16.084Z,9888
2018-01-01T09:24:16.493Z,4964
2018-01-01T09:25:16.845Z,8720
2018-01-01T09:26:18.050Z,4216
2018-01-01T09:27:17.241Z,6084
2018-01-01T09:28:17.382Z,13112
2018-01-01T09:29:17.424Z,9084
2018-01-01T09:30:17.334Z,12968
2018-01-01T09:31:17.916Z,9460
2018-01-01T09:32:17.177Z,8968
2018-01-01T09:33:17.465Z,8256
2018-01-01T09:34:18.126Z,5256
2018-01-01T09:35:17.936Z,5572
2018-01-01T09:36:18.094Z,7716
2018-01-01T09:37:18.537Z,4712
2018-01-01T09:38:18.631Z,3508
2018-01-01T09:39:18.766Z,4928
2018-01-01T09:40:18.867Z,6060
2018-01-01T09:41:19.411Z,9296
2018-01-01T09:42:19.259Z,5536
2018-01-01T09:43:18.531Z,4828
2018-01-01T09:44:20.367Z,5492
2018-01-01T09:45:20.212Z,8180
2018-01-01T09:46:19.592Z,6460
2018-01-01T09:47:19.455Z,5204
2018-01-01T09:48:19.087Z,8284
2018-01-01T09:49:19.148Z,8364
2018-01-01T09:50:19.535Z,11044
2018-01-01T09:51:19.707Z,9800
2018-01-01T09:52:19.500Z,7760
2018-01-01T09:53:19.910Z,8380
2018-01-01T09:54:20.620Z,10656
2018-01-01T09:55:21.033Z,9868
2018-01-01T09:56:20.949Z,12044
2018-01-01T09:57:20.664Z,9940
2018-01-01T09:58:20.780Z,14000
2018-01-01T09:59:21.348Z,11880
2018-01-01T10:00:26.427Z,13984
2018-01-01T10:01:26.620Z,12416
2018-01-01T10:02:27.654Z,17120
2018-01-01T10:03:27.434Z,19872
2018-01-01T10:04:27.219Z,13796
2018-01-01T10:05:26.774Z,11536
2018-01-01T10:06:29.064Z,13392
2018-01-01T10:07:27.399Z,15296
2018-01-01T10:08:27.805Z,15872
2018-01-01T10:09:27.585Z,9244
2018-01-01T10:10:27.899Z,13788
2018-01-01T10:11:27.700Z,12564
2018-01-01T10:12:28.071Z,11448
2018-01-01T10:13:27.431Z,5992
2018-01-01T10:14:27.890Z,6236
2018-01-01T10:15:28.265Z,7020
2018-01-01T10:16:27.539Z,8632
2018-01-01T10:17:27.871Z,7656
2018-01-01T10:18:29.482Z,9760
2018-01-01T10:19:28.881Z,16704
2018-01-01T10:20:29.801Z,10172
2018-01-01T10:21:28.934Z,6952
2018-01-01T10:22:29.164Z,7464
2018-01-01T10:23:29.689Z,11152
2018-01-01T10:24:29.703Z,12568
2018-01-01T10:25:30.083Z,5580
2018-01-01T10:26:28.471Z,13780
2018-01-01T10:27:28.125Z,5792
2018-01-01T10:28:28.362Z,4508
2018-01-01T10:29:28.270Z,8152
2018-01-01T10:30:28.773Z,21376
2018-01-01T10:31:28.607Z,19808
2018-01-01T10:32:29.070Z,18944
2018-01-01T10:33:30.142Z,13276
2018-01-01T10:34:29.573Z,16576
2018-01-01T10:35:29.517Z,10548
2018-01-01T10:36:28.952Z,4472
2018-01-01T10:37:30.814Z,3964
2018-01-01T10:38:28.989Z,2884
2018-01-01T10:39:28.807Z,4148
2018-01-01T10:40:29.342Z,4408
2018-01-01T10:41:29.737Z,5336
2018-01-01T10:42:29.476Z,4488
2018-01-01T10:43:29.255Z,5416
2018-01-01T10:44:28.914Z,5144
2018-01-01T10:45:29.805Z,5908
2018-01-01T10:46:29.507Z,4272
2018-01-01T10:47:30.468Z,2392
2018-01-01T10:48:29.747Z,3160
2018-01-01T10:49:31.005Z,4932
2018-01-01T10:50:30.921Z,5144
2018-01-01T10:51:29.157Z,4780
2018-01-01T10:52:31.024Z,5036
2018-01-01T10:53:29.718Z,5096
2018-01-01T10:54:30.248Z,4844
2018-01-01T10:55:30.065Z,4744
2018-01-01T10:56:29.557Z,4732
2018-01-01T10:57:30.352Z,4784
2018-01-01T10:58:29.576Z,4032
2018-01-01T10:59:29.867Z,4728
2018-01-01T11:00:30.215Z,4952
2018-01-01T11:01:30.250Z,4864
2018-01-01T11:02:30.637Z,4880
2018-01-01T11:03:29.708Z,4752
2018-01-01T11:04:30.230Z,5224
2018-01-01T11:05:30.049Z,6144
2018-01-01T11:06:30.419Z,5472
2018-01-01T11:07:30.130Z,4456
2018-01-01T11:08:30.272Z,5224
2018-01-01T11:09:30.163Z,4520
2018-01-01T11:10:30.341Z,4920
2018-01-01T11:11:31.013Z,2716
2018-01-01T11:12:30.887Z,2816
2018-01-01T11:13:30.924Z,4168
2018-01-01T11:14:30.863Z,3592
2018-01-01T11:15:31.352Z,4492
2018-01-01T11:16:30.779Z,4012
2018-01-01T11:17:31.069Z,4264
2018-01-01T11:18:31.542Z,3984
2018-01-01T11:19:31.013Z,3624
2018-01-01T11:20:31.987Z,3900
2018-01-01T11:21:31.634Z,3908
2018-01-01T11:22:32.245Z,3488
2018-01-01T11:23:32.371Z,3132
2018-01-01T11:24:31.823Z,3472
2018-01-01T11:25:31.617Z,3372
2018-01-01T11:26:33.080Z,2728
2018-01-01T11:27:32.452Z,3036
2018-01-01T11:28:32.767Z,2672
2018-01-01T11:29:33.375Z,3444
2018-01-01T11:30:33.585Z,2348
2018-01-01T11:31:32.997Z,4204
2018-01-01T11:32:33.854Z,4196
2018-01-01T11:33:33.705Z,3696
2018-01-01T11:34:33.469Z,3112
2018-01-01T11:35:33.671Z,3692
2018-01-01T11:36:33.739Z,2864
2018-01-01T11:37:33.755Z,3392
2018-01-01T11:38:34.418Z,3320
2018-01-01T11:39:34.996Z,3424
2018-01-01T11:40:34.864Z,2900
2018-01-01T11:41:34.768Z,3144
2018-01-01T11:42:35.169Z,3980
2018-01-01T11:43:34.988Z,3208
2018-01-01T11:44:35.079Z,3440
2018-01-01T11:45:34.940Z,3728
2018-01-01T11:46:35.788Z,3656
2018-01-01T11:47:36.397Z,3180
2018-01-01T11:48:36.015Z,2116
2018-01-01T11:49:35.939Z,2740
2018-01-01T11:50:35.742Z,3440
2018-01-01T11:51:36.009Z,2520
2018-01-01T11:52:36.294Z,2760
2018-01-01T11:53:36.557Z,2576
2018-01-01T11:54:35.791Z,2584
2018-01-01T11:55:35.810Z,2720
2018-01-01T11:56:35.839Z,3168
2018-01-01T11:57:36.327Z,3128
2018-01-01T11:58:36.300Z,3948
2018-01-01T11:59:36.843Z,3492
2018-01-01T12:00:36.784Z,2988
2018-01-01T12:01:36.868Z,2448
2018-01-01T12:02:36.998Z,2380
2018-01-01T12:03:36.711Z,1976
2018-01-01T12:04:37.206Z,1928
2018-01-01T12:05:36.697Z,1544
2018-01-01T12:06:36.931Z,1616
2018-01-01T12:07:37.219Z,1528
2018-01-01T12:08:37.010Z,1312
2018-01-01T12:09:36.517Z,1444
2018-01-01T12:10:37.759Z,1512
2018-01-01T12:11:37.484Z,1596
2018-01-01T12:12:37.521Z,1176
2018-01-01T12:13:37.442Z,1172
2018-01-01T12:14:38.097Z,1380
2018-01-01T12:15:37.307Z,1260
2018-01-01T12:16:38.507Z,1284
2018-01-01T12:17:37.999Z,1388
2018-01-01T12:18:38.739Z,1072
2018-01-01T12:19:38.192Z,1136
2018-01-01T12:20:38.166Z,1072
2018-01-01T12:21:38.263Z,1404
2018-01-01T12:22:39.783Z,1600
2018-01-01T12:23:39.685Z,1172
2018-01-01T12:24:39.099Z,1456
2018-01-01T12:25:38.758Z,1708
2018-01-01T12:26:38.408Z,1364
2018-01-01T12:27:38.591Z,1492
2018-01-01T12:28:39.099Z,1568
2018-01-01T12:29:39.981Z,1588
2018-01-01T12:30:38.537Z,1692
2018-01-01T12:31:41.227Z,1572
2018-01-01T12:32:39.040Z,1456
2018-01-01T12:33:40.842Z,1324
2018-01-01T12:34:40.142Z,1228
2018-01-01T12:35:39.628Z,1132
2018-01-01T12:36:39.387Z,1020
2018-01-01T12:37:39.362Z,1148
2018-01-01T12:38:39.096Z,1156
2018-01-01T12:39:39.831Z,1172
2018-01-01T12:40:39.262Z,1476
2018-01-01T12:41:39.540Z,1400
2018-01-01T12:42:39.015Z,1352
2018-01-01T12:43:38.740Z,1360
2018-01-01T12:44:39.109Z,1520
2018-01-01T12:45:39.368Z,1552
2018-01-01T12:46:39.187Z,1668
2018-01-01T12:47:39.148Z,1876
2018-01-01T12:48:39.254Z,2056
2018-01-01T12:49:39.748Z,2268
2018-01-01T12:50:39.519Z,2176
2018-01-01T12:51:39.752Z,1856
2018-01-01T12:52:40.149Z,1852
2018-01-01T12:53:39.815Z,1900
2018-01-01T12:54:40.082Z,1920
2018-01-01T12:55:40.079Z,1748
2018-01-01T12:56:40.059Z,1800
2018-01-01T12:57:40.548Z,2164
2018-01-01T12:58:40.597Z,2116
2018-01-01T12:59:41.238Z,1828
2018-01-01T13:00:41.067Z,1372
2018-01-01T13:01:40.756Z,1420
2018-01-01T13:02:41.182Z,1268
2018-01-01T13:03:41.676Z,1296
2018-01-01T13:04:41.403Z,1416
2018-01-01T13:05:41.956Z,1604
2018-01-01T13:06:41.833Z,1688
2018-01-01T13:07:42.257Z,1728
2018-01-01T13:08:42.304Z,1532
2018-01-01T13:09:42.520Z,1424
2018-01-01T13:10:42.994Z,1448
2018-01-01T13:11:42.455Z,1632
2018-01-01T13:12:43.343Z,1592
2018-01-01T13:13:43.402Z,1444
2018-01-01T13:14:44.028Z,1472
2018-01-01T13:15:44.359Z,1724
2018-01-01T13:16:42.798Z,1732
2018-01-01T13:17:43.222Z,1396
2018-01-01T13:18:43.846Z,1320
2018-01-01T13:19:43.343Z,1468
2018-01-01T13:20:43.371Z,1680
2018-01-01T13:21:43.168Z,1900
2018-01-01T13:22:43.852Z,1968
2018-01-01T13:23:45.553Z,1820
2018-01-01T13:24:44.684Z,1768
2018-01-01T13:25:44.237Z,1776
2018-01-01T13:26:44.102Z,1752
2018-01-01T13:27:43.388Z,1568
2018-01-01T13:28:44.399Z,1524
2018-01-01T13:29:43.614Z,1416
2018-01-01T13:30:43.765Z,1224
2018-01-01T13:31:43.627Z,1172
2018-01-01T13:32:44.066Z,1128
2018-01-01T13:33:45.691Z,1024
2018-01-01T13:34:44.213Z,892
2018-01-01T13:35:44.414Z,920
2018-01-01T13:36:44.414Z,908
2018-01-01T13:37:44.973Z,948
2018-01-01T13:38:44.805Z,872
2018-01-01T13:39:44.763Z,856
2018-01-01T13:40:45.182Z,784
2018-01-01T13:41:45.683Z,764
2018-01-01T13:42:45.891Z,712
2018-01-01T13:43:46.016Z,696
2018-01-01T13:44:45.620Z,712
2018-01-01T13:45:45.614Z,756
2018-01-01T13:46:45.901Z,784
2018-01-01T13:47:46.231Z,800
2018-01-01T13:48:46.288Z,804
2018-01-01T13:49:45.893Z,804
2018-01-01T13:50:46.495Z,792
2018-01-01T13:51:46.515Z,812
2018-01-01T13:52:46.333Z,756
2018-01-01T13:53:46.410Z,728
2018-01-01T13:54:46.320Z,780
2018-01-01T13:55:46.835Z,808
2018-01-01T13:56:47.582Z,828
2018-01-01T13:57:46.989Z,868
2018-01-01T13:58:49.067Z,876
2018-01-01T13:59:47.715Z,824
2018-01-01T14:00:48.329Z,800
2018-01-01T14:01:48.670Z,808
2018-01-01T14:02:48.958Z,816
2018-01-01T14:03:48.578Z,828
2018-01-01T14:04:49.026Z,840
2018-01-01T14:05:49.148Z,852
2018-01-01T14:06:49.655Z,840
2018-01-01T14:07:49.854Z,844
2018-01-01T14:08:50.224Z,852
2018-01-01T14:09:50.355Z,836